createdAt,value
2022-12-31T00:01:28.043Z,99948.25
2022-12-31T00:03:57.073Z,99949.03
2022-12-31T00:06:28.017Z,99960.88
2022-12-31T00:08:56.761Z,99954.16
2022-12-31T00:11:24.918Z,99963.50
2022-12-31T00:13:52.422Z,99955.47
2022-12-31T00:16:24.836Z,99956.06
2022-12-31T00:18:54.751Z,99962.56
2022-12-31T00:21:22.566Z,99973.56
2022-12-31T00:23:49.370Z,99967.16
2022-12-31T00:26:18.590Z,99967.16
2022-12-31T00:28:45.521Z,99979.66
2022-12-31T00:31:19.370Z,99971.25
2022-12-31T00:33:46.197Z,99982.28
2022-12-31T00:36:18.805Z,99980.72
2022-12-31T00:38:46.970Z,99986.72
2022-12-31T00:41:14.563Z,99989.59
2022-12-31T00:43:41.074Z,99982.19
2022-12-31T00:46:07.999Z,99987.66
2022-12-31T00:48:35.634Z,99991.72
2022-12-31T00:51:04.097Z,99993.31
2022-12-31T00:53:30.924Z,99997.50
2022-12-31T00:56:19.240Z,100004.97
2022-12-31T00:58:46.185Z,99997.09
2022-12-31T01:01:27.524Z,100003.13
2022-12-31T01:03:58.211Z,100002.13
2022-12-31T01:06:25.480Z,99991.56
2022-12-31T01:08:55.187Z,99998.72
2022-12-31T01:11:22.902Z,100002.22
2022-12-31T01:13:55.671Z,100002.69
2022-12-31T01:16:31.542Z,100000.22
2022-12-31T01:19:04.392Z,100010.38
2022-12-31T01:21:31.498Z,100021.56
2022-12-31T01:23:59.112Z,100033.78
2022-12-31T01:26:26.337Z,100030.34
2022-12-31T01:28:53.042Z,100026.66
2022-12-31T01:31:21.921Z,100028.63
2022-12-31T01:33:48.499Z,100038.16
2022-12-31T01:36:25.610Z,100030.09
2022-12-31T01:38:55.979Z,100031.41
2022-12-31T01:41:27.718Z,100038.41
2022-12-31T01:43:57.519Z,100037.59
2022-12-31T01:46:39.281Z,100036.38
2022-12-31T01:49:25.295Z,100029.81
2022-12-31T01:52:14.779Z,100034.34
2022-12-31T01:54:46.984Z,100014.56
2022-12-31T01:57:14.515Z,100025.00
2022-12-31T01:59:41.541Z,100023.63
2022-12-31T02:02:08.233Z,100021.59
2022-12-31T02:04:34.845Z,100022.78
2022-12-31T02:07:04.524Z,100032.69
2022-12-31T02:09:31.437Z,100026.59
2022-12-31T02:11:57.975Z,100020.47
2022-12-31T02:14:29.605Z,100022.91
2022-12-31T02:17:14.624Z,100031.78
2022-12-31T02:20:18.569Z,100034.94
2022-12-31T02:23:03.768Z,100029.34
2022-12-31T02:25:58.401Z,100025.22
2022-12-31T02:28:53.025Z,100031.41
2022-12-31T02:31:31.592Z,100021.06
2022-12-31T02:34:21.058Z,100018.72
2022-12-31T02:36:51.436Z,100020.59
2022-12-31T02:39:18.397Z,100007.47
2022-12-31T02:41:54.931Z,100015.75
2022-12-31T02:44:28.951Z,100005.59
2022-12-31T02:47:22.617Z,100007.44
2022-12-31T02:50:19.742Z,100014.84
2022-12-31T02:52:49.166Z,100020.75
2022-12-31T02:55:41.562Z,100028.31
2022-12-31T02:58:14.567Z,100021.03
2022-12-31T03:01:06.429Z,100020.38
2022-12-31T03:03:33.648Z,100018.34
2022-12-31T03:06:03.558Z,100013.03
2022-12-31T03:08:30.401Z,100033.13
2022-12-31T03:10:57.071Z,100033.47
2022-12-31T03:13:24.783Z,100033.41
2022-12-31T03:15:51.519Z,100033.66
2022-12-31T03:18:39.347Z,100027.38
2022-12-31T03:21:30.734Z,100037.53
2022-12-31T03:24:16.123Z,100040.59
2022-12-31T03:26:42.553Z,100022.19
2022-12-31T03:29:08.936Z,100025.22
2022-12-31T03:31:35.692Z,100025.41
2022-12-31T03:34:02.108Z,100025.41
2022-12-31T03:36:28.648Z,100038.63
2022-12-31T03:38:55.271Z,100026.16
2022-12-31T03:41:21.707Z,100037.97
2022-12-31T03:43:48.134Z,100028.91
2022-12-31T03:46:14.658Z,100022.72
2022-12-31T03:48:41.109Z,100017.38
2022-12-31T03:51:07.763Z,100022.91
2022-12-31T03:53:35.653Z,100017.91
2022-12-31T03:56:02.191Z,100012.34
2022-12-31T03:58:28.601Z,100024.94
2022-12-31T04:00:55.051Z,100014.19
2022-12-31T04:03:21.552Z,100021.16
2022-12-31T04:05:55.521Z,100004.41
2022-12-31T04:08:22.042Z,100014.59
2022-12-31T04:10:48.504Z,100016.78
2022-12-31T04:13:14.977Z,100014.94
2022-12-31T04:15:41.382Z,100021.50
2022-12-31T04:18:07.859Z,100034.72
2022-12-31T04:20:34.276Z,100035.44
2022-12-31T04:23:00.751Z,100045.63
2022-12-31T04:25:27.201Z,100046.63
2022-12-31T04:27:53.599Z,100041.28
2022-12-31T04:30:20.113Z,100052.81
2022-12-31T04:32:46.521Z,100048.97
2022-12-31T04:35:12.951Z,100061.53
2022-12-31T04:37:39.500Z,100049.31
2022-12-31T04:40:07.632Z,100046.75
2022-12-31T04:42:35.124Z,100045.09
2022-12-31T04:45:01.669Z,100043.06
2022-12-31T04:47:28.175Z,100036.66
2022-12-31T04:49:54.660Z,100040.66
2022-12-31T04:52:21.727Z,100032.63
2022-12-31T04:54:48.131Z,100031.31
2022-12-31T04:57:14.555Z,100042.59
2022-12-31T04:59:40.995Z,100041.19
2022-12-31T05:02:07.845Z,100034.38
2022-12-31T05:04:34.448Z,100031.69
2022-12-31T05:07:00.849Z,100031.69
2022-12-31T05:09:28.242Z,100030.47
2022-12-31T05:11:54.694Z,100038.06
2022-12-31T05:14:21.157Z,100024.66
2022-12-31T05:16:47.704Z,100013.94
2022-12-31T05:19:14.295Z,99995.00
2022-12-31T05:21:40.691Z,99998.88
2022-12-31T05:24:08.038Z,99998.03
2022-12-31T05:26:34.729Z,99992.84
2022-12-31T05:29:01.194Z,99983.97
2022-12-31T05:31:27.604Z,99985.16
2022-12-31T05:33:54.038Z,99994.69
2022-12-31T05:36:20.478Z,99996.72
2022-12-31T05:38:46.876Z,100005.94
2022-12-31T05:41:13.281Z,100020.00
2022-12-31T05:43:39.696Z,100026.56
2022-12-31T05:46:06.351Z,100027.94
2022-12-31T05:48:32.970Z,100038.00
2022-12-31T05:50:59.456Z,100050.41
2022-12-31T05:53:26.208Z,100048.91
2022-12-31T05:55:52.693Z,100065.16
2022-12-31T05:58:19.169Z,100068.00
2022-12-31T06:00:46.121Z,100066.50
2022-12-31T06:03:12.944Z,100057.66
2022-12-31T06:05:41.970Z,100057.47
2022-12-31T06:08:09.829Z,100057.16
2022-12-31T06:10:36.406Z,100067.25
2022-12-31T06:13:03.105Z,100060.56
2022-12-31T06:15:29.594Z,100064.09
2022-12-31T06:17:56.125Z,100071.28
2022-12-31T06:20:22.800Z,100071.47
2022-12-31T06:22:49.313Z,100083.00
2022-12-31T06:25:15.809Z,100086.53
2022-12-31T06:27:42.285Z,100083.19
2022-12-31T06:30:09.758Z,100088.53
2022-12-31T06:32:36.165Z,100084.19
2022-12-31T06:35:02.736Z,100072.31
2022-12-31T06:37:29.159Z,100065.28
2022-12-31T06:39:55.698Z,100083.03
2022-12-31T06:42:22.938Z,100071.66
2022-12-31T06:44:49.445Z,100083.91
2022-12-31T06:47:15.926Z,100069.69
2022-12-31T06:49:42.324Z,100075.28
2022-12-31T06:52:08.752Z,100075.56
2022-12-31T06:54:35.483Z,100084.25
2022-12-31T06:57:02.239Z,100084.59
2022-12-31T06:59:29.648Z,100075.06
2022-12-31T07:02:22.608Z,100070.38
2022-12-31T07:05:04.287Z,100057.22
2022-12-31T07:07:55.453Z,100065.91
2022-12-31T07:10:29.497Z,100063.56
2022-12-31T07:13:11.617Z,100071.78
2022-12-31T07:16:05.296Z,100075.81
2022-12-31T07:18:34.846Z,100094.56
2022-12-31T07:21:01.662Z,100097.22
2022-12-31T07:23:28.458Z,100079.22
2022-12-31T07:26:06.624Z,100088.25
2022-12-31T07:29:00.570Z,100091.09
2022-12-31T07:31:51.541Z,100099.78
2022-12-31T07:34:39.727Z,100106.16
2022-12-31T07:37:26.224Z,100107.97
2022-12-31T07:40:16.669Z,100120.38
2022-12-31T07:43:07.374Z,100115.69
2022-12-31T07:45:42.182Z,100107.31
2022-12-31T07:48:29.397Z,100115.00
2022-12-31T07:50:57.388Z,100121.88
2022-12-31T07:53:25.634Z,100107.66
2022-12-31T07:55:56.389Z,100121.72
2022-12-31T07:58:32.238Z,100106.16
2022-12-31T08:01:00.154Z,100111.00
2022-12-31T08:03:55.090Z,100110.84
2022-12-31T08:07:00.102Z,100123.56
2022-12-31T08:09:39.811Z,100117.22
2022-12-31T08:12:07.916Z,100110.53
2022-12-31T08:14:44.163Z,100099.50
2022-12-31T08:17:15.627Z,100084.78
2022-12-31T08:19:43.006Z,100079.44
2022-12-31T08:22:27.769Z,100095.44
2022-12-31T08:25:16.814Z,100119.19
2022-12-31T08:27:47.496Z,100114.69
2022-12-31T08:30:17.451Z,100108.31
2022-12-31T08:32:59.725Z,100106.81
2022-12-31T08:35:41.585Z,100130.06
2022-12-31T08:38:37.773Z,100121.03
2022-12-31T08:41:43.063Z,100125.50
2022-12-31T08:44:09.782Z,100144.41
2022-12-31T08:46:57.692Z,100146.75
2022-12-31T08:49:27.912Z,100140.06
2022-12-31T08:51:54.511Z,100130.97
2022-12-31T08:54:21.394Z,100108.75
2022-12-31T08:57:09.714Z,100119.91
2022-12-31T08:59:43.569Z,100119.56
2022-12-31T09:02:10.059Z,100121.72
2022-12-31T09:05:09.582Z,100113.47
2022-12-31T09:07:40.636Z,100124.72
2022-12-31T09:10:33.893Z,100122.34
2022-12-31T09:13:22.262Z,100124.03
2022-12-31T09:16:07.923Z,100120.69
2022-12-31T09:18:40.098Z,100125.69
2022-12-31T09:21:09.543Z,100126.81
2022-12-31T09:23:36.438Z,100122.47
2022-12-31T09:26:08.570Z,100145.06
2022-12-31T09:28:38.250Z,100123.44
2022-12-31T09:31:25.448Z,100123.94
2022-12-31T09:34:08.142Z,100131.31
2022-12-31T09:37:09.429Z,100130.97
2022-12-31T09:39:38.789Z,100140.00
2022-12-31T09:42:55.577Z,100142.97
2022-12-31T09:45:50.270Z,100141.50
2022-12-31T09:48:38.663Z,100153.59
2022-12-31T09:51:30.947Z,100151.56
2022-12-31T09:54:03.460Z,100155.91
2022-12-31T09:57:02.591Z,100149.41
2022-12-31T09:59:56.970Z,100139.00
2022-12-31T10:02:47.212Z,100143.34
2022-12-31T10:05:46.440Z,100129.88
2022-12-31T10:08:24.416Z,100129.28
2022-12-31T10:10:55.913Z,100128.63
2022-12-31T10:13:37.900Z,100118.94
2022-12-31T10:16:22.602Z,100115.25
2022-12-31T10:19:07.435Z,100112.22
2022-12-31T10:21:48.859Z,100124.88
2022-12-31T10:24:18.377Z,100124.88
2022-12-31T10:27:18.615Z,100127.69
2022-12-31T10:29:54.914Z,100121.44
2022-12-31T10:32:44.492Z,100125.31
2022-12-31T10:35:45.014Z,100109.25
2022-12-31T10:38:27.857Z,100101.72
2022-12-31T10:41:31.450Z,100107.41
2022-12-31T10:44:27.789Z,100091.31
2022-12-31T10:47:17.125Z,100092.13
2022-12-31T10:50:14.609Z,100101.78
2022-12-31T10:53:14.476Z,100107.31
2022-12-31T10:56:16.191Z,100100.78
2022-12-31T10:58:48.488Z,100102.63
2022-12-31T11:01:30.250Z,100092.81
2022-12-31T11:04:17.685Z,100083.78
2022-12-31T11:07:12.149Z,100094.31
2022-12-31T11:10:07.945Z,100095.09
2022-12-31T11:12:43.107Z,100084.56
2022-12-31T11:15:50.350Z,100102.13
2022-12-31T11:18:41.663Z,100104.44
2022-12-31T11:21:08.101Z,100108.41
2022-12-31T11:23:38.681Z,100098.72
2022-12-31T11:26:40.493Z,100090.84
2022-12-31T11:29:28.609Z,100100.09
2022-12-31T11:32:13.073Z,100101.59
2022-12-31T11:34:48.208Z,100106.59
2022-12-31T11:37:36.878Z,100122.44
2022-12-31T11:40:43.619Z,100117.00
2022-12-31T11:43:25.424Z,100131.56
2022-12-31T11:46:05.992Z,100130.31
2022-12-31T11:48:59.999Z,100113.34
2022-12-31T11:51:49.982Z,100128.16
2022-12-31T11:54:26.072Z,100117.25
2022-12-31T11:56:58.546Z,100122.91
2022-12-31T11:59:24.948Z,100109.28
2022-12-31T12:02:03.274Z,100112.53
2022-12-31T12:04:30.574Z,100100.66
2022-12-31T12:06:57.754Z,100102.06
2022-12-31T12:09:30.797Z,100095.56
2022-12-31T12:12:00.552Z,100081.94
2022-12-31T12:14:41.171Z,100079.53
2022-12-31T12:17:10.511Z,100092.47
2022-12-31T12:19:47.784Z,100106.00
2022-12-31T12:22:21.678Z,100112.00
2022-12-31T12:24:58.284Z,100097.81
2022-12-31T12:27:29.292Z,100099.53
2022-12-31T12:29:55.756Z,100095.81
2022-12-31T12:32:25.776Z,100103.69
2022-12-31T12:34:53.124Z,100105.84
2022-12-31T12:37:35.422Z,100096.38
2022-12-31T12:40:05.814Z,100084.78
2022-12-31T12:42:32.400Z,100091.47
2022-12-31T12:45:13.932Z,100080.94
2022-12-31T12:47:43.064Z,100090.66
2022-12-31T12:50:23.690Z,100096.22
2022-12-31T12:53:14.565Z,100100.22
2022-12-31T12:55:43.663Z,100087.22
2022-12-31T12:58:56.292Z,100103.63
2022-12-31T13:01:46.600Z,100097.22
2022-12-31T13:04:44.219Z,100094.53
2022-12-31T13:07:24.665Z,100098.91
2022-12-31T13:10:12.674Z,100104.53
2022-12-31T13:13:23.291Z,100086.66
2022-12-31T13:16:04.596Z,100105.19
2022-12-31T13:18:49.842Z,100103.13
2022-12-31T13:21:35.657Z,100113.63
2022-12-31T13:24:29.348Z,100105.19
2022-12-31T13:27:26.690Z,100103.78
2022-12-31T13:29:56.122Z,100101.94
2022-12-31T13:32:36.658Z,100109.34
2022-12-31T13:35:19.745Z,100104.22
2022-12-31T13:37:47.551Z,100106.72
2022-12-31T13:40:26.683Z,100108.38
2022-12-31T13:43:29.773Z,100106.78
2022-12-31T13:46:11.333Z,100116.25
2022-12-31T13:48:47.929Z,100108.19
2022-12-31T13:51:22.944Z,100108.00
2022-12-31T13:54:01.717Z,100111.72
2022-12-31T13:56:33.820Z,100123.31
2022-12-31T13:59:20.123Z,100119.59
2022-12-31T14:01:54.837Z,100127.47
2022-12-31T14:04:45.021Z,100127.28
2022-12-31T14:07:18.254Z,100134.50
2022-12-31T14:09:46.401Z,100132.84
2022-12-31T14:12:34.364Z,100132.66
2022-12-31T14:15:15.140Z,100128.88
2022-12-31T14:17:50.407Z,100140.66
2022-12-31T14:20:44.244Z,100145.38
2022-12-31T14:23:25.975Z,100151.38
2022-12-31T14:26:03.794Z,100152.38
2022-12-31T14:28:39.315Z,100149.25
2022-12-31T14:31:31.376Z,100148.41
2022-12-31T14:34:15.452Z,100141.91
2022-12-31T14:36:44.769Z,100159.25
2022-12-31T14:39:29.468Z,100154.53
2022-12-31T14:42:20.356Z,100165.09
2022-12-31T14:45:16.074Z,100163.63
2022-12-31T14:48:21.598Z,100153.50
2022-12-31T14:50:48.718Z,100152.69
2022-12-31T14:53:33.141Z,100140.72
2022-12-31T14:56:05.303Z,100144.59
2022-12-31T14:58:36.223Z,100171.13
2022-12-31T15:01:19.182Z,100170.94
2022-12-31T15:03:46.472Z,100167.03
2022-12-31T15:06:35.667Z,100157.94
2022-12-31T15:09:26.649Z,100170.94
2022-12-31T15:12:05.133Z,100171.41
2022-12-31T15:14:52.977Z,100180.94
2022-12-31T15:17:22.468Z,100169.72
2022-12-31T15:20:05.294Z,100174.09
2022-12-31T15:22:46.137Z,100194.13
2022-12-31T15:25:40.027Z,100194.13
2022-12-31T15:28:24.745Z,100193.47
2022-12-31T15:30:52.987Z,100195.69
2022-12-31T15:33:19.387Z,100190.91
2022-12-31T15:35:50.438Z,100196.72
2022-12-31T15:38:29.159Z,100191.09
2022-12-31T15:40:55.618Z,100199.81
2022-12-31T15:43:24.888Z,100208.72
2022-12-31T15:45:54.105Z,100199.16
2022-12-31T15:48:28.221Z,100205.72
2022-12-31T15:50:58.576Z,100213.78
2022-12-31T15:53:28.498Z,100204.88
2022-12-31T15:55:58.514Z,100211.09
2022-12-31T15:58:27.829Z,100213.13
2022-12-31T16:01:13.127Z,100219.91
2022-12-31T16:04:05.603Z,100231.50
2022-12-31T16:06:36.871Z,100241.53
2022-12-31T16:09:06.863Z,100244.03
2022-12-31T16:11:41.521Z,100226.97
2022-12-31T16:14:16.057Z,100229.66
2022-12-31T16:16:52.787Z,100231.97
2022-12-31T16:19:31.332Z,100234.66
2022-12-31T16:22:14.012Z,100230.50
2022-12-31T16:25:02.792Z,100209.47
2022-12-31T16:27:29.190Z,100224.84
2022-12-31T16:30:01.854Z,100239.50
2022-12-31T16:32:35.998Z,100234.31
2022-12-31T16:35:05.916Z,100235.88
2022-12-31T16:37:36.724Z,100241.63
2022-12-31T16:40:08.878Z,100247.47
2022-12-31T16:42:44.129Z,100249.13
2022-12-31T16:45:25.437Z,100251.81
2022-12-31T16:47:52.102Z,100245.34
2022-12-31T16:50:21.755Z,100247.19
2022-12-31T16:53:04.114Z,100236.63
2022-12-31T16:55:32.627Z,100246.09
2022-12-31T16:58:15.102Z,100239.22
2022-12-31T17:00:42.924Z,100238.94
2022-12-31T17:03:23.259Z,100239.94
2022-12-31T17:06:09.322Z,100253.38
2022-12-31T17:08:43.303Z,100230.22
2022-12-31T17:11:25.186Z,100252.72
2022-12-31T17:14:05.257Z,100223.19
2022-12-31T17:16:33.272Z,100252.56
2022-12-31T17:18:59.767Z,100226.69
2022-12-31T17:21:31.467Z,100217.81
2022-12-31T17:24:03.165Z,100229.03
2022-12-31T17:26:34.629Z,100217.44
2022-12-31T17:29:02.796Z,100260.25
2022-12-31T17:31:35.329Z,100240.59
2022-12-31T17:34:22.712Z,100287.59
2022-12-31T17:36:58.273Z,100253.88
2022-12-31T17:39:26.381Z,100248.66
2022-12-31T17:41:57.477Z,100250.53
2022-12-31T17:44:28.466Z,100260.44
2022-12-31T17:46:55.263Z,100245.50
2022-12-31T17:49:30.809Z,100261.63
2022-12-31T17:51:57.554Z,100245.06
2022-12-31T17:54:24.089Z,100233.50
2022-12-31T17:56:52.553Z,100236.06
2022-12-31T17:59:24.988Z,100235.03
2022-12-31T18:01:51.680Z,100223.66
2022-12-31T18:04:19.174Z,100235.03
2022-12-31T18:06:45.668Z,100228.66
2022-12-31T18:09:12.181Z,100240.72
2022-12-31T18:11:40.071Z,100233.94
2022-12-31T18:14:07.174Z,100221.97
2022-12-31T18:16:34.156Z,100212.53
2022-12-31T18:19:01.351Z,100240.34
2022-12-31T18:21:33.008Z,100228.38
2022-12-31T18:26:28.110Z,100232.66
2022-12-31T18:28:54.828Z,100225.25
2022-12-31T18:31:27.074Z,100230.50
2022-12-31T18:33:55.486Z,100229.28
2022-12-31T18:36:23.535Z,100219.56
2022-12-31T18:38:50.407Z,100207.22
2022-12-31T18:41:23.522Z,100202.47
2022-12-31T18:43:50.402Z,100204.38
2022-12-31T18:46:18.929Z,100208.91
2022-12-31T18:48:45.446Z,100211.84
2022-12-31T18:51:25.149Z,100206.66
2022-12-31T18:53:56.270Z,100203.13
2022-12-31T18:56:25.029Z,100219.72
2022-12-31T18:58:51.548Z,100222.22
2022-12-31T19:01:28.500Z,100227.22
2022-12-31T19:03:57.750Z,100231.97
2022-12-31T19:06:24.605Z,100220.56
2022-12-31T19:08:51.629Z,100219.72
2022-12-31T19:11:19.209Z,100213.78
2022-12-31T19:13:46.027Z,100220.19
2022-12-31T19:16:13.901Z,100215.81
2022-12-31T19:18:41.601Z,100208.59
2022-12-31T19:21:26.154Z,100221.03
2022-12-31T19:23:54.408Z,100221.38
2022-12-31T19:26:22.621Z,100223.81
2022-12-31T19:28:50.880Z,100233.28
2022-12-31T19:31:17.800Z,100237.06
2022-12-31T19:33:45.092Z,100233.28
2022-12-31T19:36:19.613Z,100243.44
2022-12-31T19:38:46.623Z,100228.28
2022-12-31T19:41:18.845Z,100223.38
2022-12-31T19:43:46.623Z,100214.66
2022-12-31T19:46:18.426Z,100224.63
2022-12-31T19:48:45.729Z,100218.00
2022-12-31T19:51:19.771Z,100224.75
2022-12-31T19:53:48.526Z,100223.09
2022-12-31T19:56:18.447Z,100219.56
2022-12-31T19:58:45.253Z,100224.94
2022-12-31T20:01:20.177Z,100211.69
2022-12-31T20:03:47.526Z,100220.75
2022-12-31T20:06:14.308Z,100238.56
2022-12-31T20:08:43.317Z,100212.88
2022-12-31T20:11:21.582Z,100249.31
2022-12-31T20:13:49.590Z,100241.91
2022-12-31T20:16:17.729Z,100231.16
2022-12-31T20:18:45.474Z,100247.81
2022-12-31T20:21:18.448Z,100244.03
2022-12-31T20:23:45.546Z,100239.50
2022-12-31T20:26:12.022Z,100237.06
2022-12-31T20:28:38.633Z,100239.56
2022-12-31T20:31:10.346Z,100247.25
2022-12-31T20:33:37.416Z,100250.41
2022-12-31T20:36:05.767Z,100221.66
2022-12-31T20:38:32.472Z,100241.19
2022-12-31T20:41:05.947Z,100242.84
2022-12-31T20:43:33.794Z,100242.63
2022-12-31T20:46:08.114Z,100238.91
2022-12-31T20:48:39.161Z,100240.03
2022-12-31T20:51:05.993Z,100239.47
2022-12-31T20:53:32.469Z,100228.91
2022-12-31T20:56:07.762Z,100238.50
2022-12-31T20:58:34.866Z,100232.09
2022-12-31T21:01:04.954Z,100241.66
2022-12-31T21:04:03.883Z,100233.91
2022-12-31T21:06:18.253Z,100229.50
2022-12-31T21:08:45.087Z,100246.06
2022-12-31T21:11:30.647Z,100239.28
2022-12-31T21:13:58.255Z,100246.63
2022-12-31T21:16:25.750Z,100245.78
2022-12-31T21:18:52.642Z,100243.56
2022-12-31T21:21:19.063Z,100233.63
2022-12-31T21:23:45.684Z,100226.16
2022-12-31T21:26:12.591Z,100222.53
2022-12-31T21:28:39.056Z,100224.66
2022-12-31T21:31:07.851Z,100220.34
2022-12-31T21:33:35.144Z,100200.47
2022-12-31T21:36:04.700Z,100219.75
2022-12-31T21:38:31.883Z,100220.03
2022-12-31T21:41:03.227Z,100220.91
2022-12-31T21:43:29.897Z,100239.19
2022-12-31T21:46:01.467Z,100233.78
2022-12-31T21:48:28.267Z,100238.19
2022-12-31T21:51:03.985Z,100235.31
2022-12-31T21:53:36.625Z,100243.63
2022-12-31T21:56:11.137Z,100243.25
2022-12-31T21:58:43.480Z,100248.91
2022-12-31T22:01:36.771Z,100260.38
2022-12-31T22:04:04.386Z,100248.59
2022-12-31T22:06:32.323Z,100260.66
2022-12-31T22:08:58.826Z,100254.84
2022-12-31T22:11:27.518Z,100246.94
2022-12-31T22:13:54.936Z,100261.69
2022-12-31T22:16:22.357Z,100257.34
2022-12-31T22:18:49.726Z,100256.13
2022-12-31T22:21:20.880Z,100248.28
2022-12-31T22:23:49.979Z,100254.50
2022-12-31T22:26:18.377Z,100248.47
2022-12-31T22:28:46.009Z,100256.81
2022-12-31T22:31:14.465Z,100256.19
2022-12-31T22:33:41.334Z,100259.28
2022-12-31T22:36:12.202Z,100252.88
2022-12-31T22:38:38.729Z,100247.47
2022-12-31T22:41:09.445Z,100258.06
2022-12-31T22:43:39.930Z,100265.50
2022-12-31T22:46:12.383Z,100265.97
2022-12-31T22:48:39.529Z,100260.53
2022-12-31T22:51:06.730Z,100270.13
2022-12-31T22:53:33.591Z,100264.94
2022-12-31T22:56:00.041Z,100270.13
2022-12-31T22:58:26.563Z,100285.06
2022-12-31T23:00:53.556Z,100264.09
2022-12-31T23:03:20.136Z,100275.31
2022-12-31T23:05:50.868Z,100273.06
2022-12-31T23:08:23.093Z,100284.91
2022-12-31T23:11:05.344Z,100295.94
2022-12-31T23:13:56.336Z,100291.19
2022-12-31T23:16:44.398Z,100295.78
2022-12-31T23:19:30.772Z,100302.63
2022-12-31T23:22:15.841Z,100303.66
2022-12-31T23:24:42.582Z,100301.59
2022-12-31T23:27:09.723Z,100305.38
2022-12-31T23:29:45.982Z,100278.38
2022-12-31T23:32:15.172Z,100291.31
2022-12-31T23:34:43.059Z,100280.28
2022-12-31T23:37:09.509Z,100274.69
2022-12-31T23:39:35.983Z,100285.09
2022-12-31T23:42:02.477Z,100293.44
2022-12-31T23:44:28.933Z,100291.97
2022-12-31T23:46:55.731Z,100299.88
2022-12-31T23:49:22.203Z,100303.59
2022-12-31T23:51:48.734Z,100272.88
2022-12-31T23:54:15.891Z,100302.13
2022-12-31T23:56:42.383Z,100292.34
2022-12-31T23:59:10.717Z,100310.06
